Aspers, Pennsylvania
Current Conditions -  °F | °C
As of 2:53 PM on Thursday 23 Oct 2014 (Local Time) from KTHV Reporting Station
Overcast Overcast  
Wind Chill: 60°   Ceiling: 3900
Heat Index: 60°   Visibility: 10mi
Dew Point: 45°   Wind: 17mph
Humidity: 57%   Direction: 320°NW
Pressure: 29.84"   Gusts: 23mph
Location:  39.98°N, 77.22°W
Report Text: KTHV 231853Z AUTO 32015G20KT 10SM OVC039 16/07 A2984 RMK AO2 SLP107 T01560072
Loading
Personal Weather Stations






























Interactive Weather Map New forecast layout! Learn more

10-Day Weather Forecast

Advertisements
Track Severe Weather on mobile